createdAt,value
2019-01-30T00:02:32.455Z,8.53
2019-01-30T00:06:38.735Z,11.10
2019-01-30T00:10:46.485Z,11.27
2019-01-30T00:14:54.286Z,9.35
2019-01-30T00:19:00.840Z,10.30
2019-01-30T00:23:07.602Z,9.53
2019-01-30T00:27:14.046Z,9.30
2019-01-30T00:31:33.077Z,12.37
2019-01-30T00:36:00.993Z,10.78
2019-01-30T00:40:29.543Z,9.53
2019-01-30T00:44:39.046Z,10.83
2019-01-30T00:48:45.479Z,7.67
2019-01-30T00:52:51.986Z,15.33
2019-01-30T00:56:58.693Z,10.13
2019-01-30T01:01:05.984Z,10.73
2019-01-30T01:05:12.640Z,9.90
2019-01-30T01:09:20.039Z,11.40
2019-01-30T01:13:26.858Z,10.40
2019-01-30T01:17:44.863Z,13.47
2019-01-30T01:21:53.097Z,14.80
2019-01-30T01:25:59.417Z,11.50
2019-01-30T01:30:06.994Z,9.40
2019-01-30T01:38:29.063Z,8.88
2019-01-30T01:42:35.496Z,9.50
2019-01-30T01:46:50.533Z,12.10
2019-01-30T01:51:03.505Z,9.83
2019-01-30T01:55:14.437Z,9.70
2019-01-30T01:59:21.795Z,10.47
2019-01-30T02:03:28.676Z,8.03
2019-01-30T02:07:36.789Z,5.60
2019-01-30T02:11:43.493Z,7.40
2019-01-30T02:15:54.776Z,10.55
2019-01-30T02:20:01.098Z,10.50
2019-01-30T02:24:07.650Z,7.78
2019-01-30T02:28:14.552Z,11.65
2019-01-30T02:32:21.651Z,11.60
2019-01-30T02:36:29.921Z,12.40
2019-01-30T02:40:36.533Z,12.30
2019-01-30T02:44:43.381Z,10.77
2019-01-30T02:48:50.523Z,7.90
2019-01-30T02:52:57.338Z,8.33
2019-01-30T03:02:25.042Z,8.17
2019-01-30T03:06:31.403Z,9.80
2019-01-30T03:10:37.733Z,8.37
2019-01-30T03:14:44.122Z,9.30
2019-01-30T03:18:51.911Z,10.40
2019-01-30T03:22:58.428Z,9.73
2019-01-30T03:27:05.035Z,13.00
2019-01-30T03:31:17.554Z,7.90
2019-01-30T03:35:19.422Z,8.13
2019-01-30T03:39:30.461Z,9.23
2019-01-30T03:43:37.191Z,10.57
2019-01-30T03:47:43.464Z,5.92
2019-01-30T03:51:49.881Z,13.30
2019-01-30T03:55:56.239Z,8.87
2019-01-30T04:00:02.225Z,8.48
2019-01-30T04:04:08.930Z,8.00
2019-01-30T04:08:15.637Z,6.83
2019-01-30T04:12:22.087Z,7.50
2019-01-30T04:16:28.533Z,12.83
2019-01-30T04:20:34.554Z,7.13
2019-01-30T04:24:47.719Z,10.55
2019-01-30T04:28:54.802Z,9.90
2019-01-30T04:33:01.063Z,9.30
2019-01-30T04:37:08.009Z,10.50
2019-01-30T04:41:14.610Z,8.93
2019-01-30T04:45:21.158Z,9.63
2019-01-30T04:49:27.408Z,9.13
2019-01-30T04:53:33.760Z,9.53
2019-01-30T04:57:40.193Z,9.50
2019-01-30T05:01:49.658Z,9.20
2019-01-30T05:05:53.645Z,9.03
2019-01-30T05:10:00.575Z,9.30
2019-01-30T05:14:13.095Z,10.50
2019-01-30T05:18:20.098Z,7.53
2019-01-30T05:22:26.563Z,10.23
2019-01-30T05:26:32.655Z,11.30
2019-01-30T05:30:39.004Z,7.93
2019-01-30T05:34:45.260Z,8.43
2019-01-30T05:38:51.657Z,15.67
2019-01-30T05:42:57.984Z,9.30
2019-01-30T05:47:04.297Z,9.37
2019-01-30T05:51:10.386Z,9.50
2019-01-30T05:55:16.847Z,11.60
2019-01-30T05:59:23.282Z,11.60
2019-01-30T06:03:29.519Z,9.63
2019-01-30T06:07:35.813Z,11.97
2019-01-30T06:11:42.195Z,8.35
2019-01-30T06:15:48.604Z,6.73
2019-01-30T06:19:55.461Z,8.93
2019-01-30T06:24:01.932Z,9.30
2019-01-30T06:28:08.149Z,9.65
2019-01-30T06:32:21.661Z,6.23
2019-01-30T06:36:21.976Z,8.45
2019-01-30T06:40:28.197Z,9.47
2019-01-30T06:44:34.403Z,9.23
2019-01-30T06:48:40.810Z,9.87
2019-01-30T06:52:47.800Z,8.67
2019-01-30T06:56:53.967Z,6.72
2019-01-30T07:01:00.404Z,8.43
2019-01-30T07:05:07.198Z,10.67
2019-01-30T07:09:13.069Z,10.17
2019-01-30T07:13:19.918Z,10.13
2019-01-30T07:17:26.216Z,7.07
2019-01-30T07:21:32.307Z,12.10
2019-01-30T07:25:38.785Z,9.10
2019-01-30T07:29:45.376Z,6.43
2019-01-30T07:33:51.480Z,11.30
2019-01-30T07:37:58.804Z,9.27
2019-01-30T07:42:04.736Z,11.00
2019-01-30T07:46:11.140Z,7.83
2019-01-30T07:50:17.297Z,11.03
2019-01-30T07:54:23.474Z,7.67
2019-01-30T07:58:29.795Z,8.33
2019-01-30T08:02:36.321Z,10.50
2019-01-30T08:06:42.500Z,11.70
2019-01-30T08:10:48.631Z,9.00
2019-01-30T08:14:54.846Z,5.97
2019-01-30T08:19:01.022Z,9.23
2019-01-30T08:23:07.464Z,7.63
2019-01-30T08:27:14.327Z,10.60
2019-01-30T08:31:21.125Z,10.87
2019-01-30T08:35:27.386Z,11.67
2019-01-30T08:39:33.460Z,8.55
2019-01-30T08:43:39.860Z,10.82
2019-01-30T08:47:46.370Z,8.47
2019-01-30T08:51:52.735Z,6.97
2019-01-30T08:55:58.705Z,11.80
2019-01-30T09:00:06.272Z,7.47
2019-01-30T09:04:12.968Z,11.73
2019-01-30T09:08:18.942Z,6.83
2019-01-30T09:12:25.068Z,6.83
2019-01-30T09:16:31.890Z,8.23
2019-01-30T09:20:38.436Z,8.80
2019-01-30T09:24:45.718Z,10.70
2019-01-30T09:28:51.882Z,10.83
2019-01-30T09:32:58.167Z,10.87
2019-01-30T09:37:04.808Z,9.80
2019-01-30T09:41:23.298Z,10.10
2019-01-30T09:45:32.253Z,8.67
2019-01-30T09:49:39.475Z,10.05
2019-01-30T09:53:46.423Z,10.87
2019-01-30T09:57:53.160Z,9.60
2019-01-30T10:01:59.739Z,9.23
2019-01-30T10:06:06.226Z,7.83
2019-01-30T10:10:13.197Z,11.23
2019-01-30T10:14:19.626Z,10.23
2019-01-30T10:18:25.990Z,9.53
2019-01-30T10:22:32.325Z,13.80
2019-01-30T10:26:38.840Z,11.70
2019-01-30T10:30:45.430Z,11.63
2019-01-30T10:34:51.630Z,9.50
2019-01-30T10:38:58.307Z,12.57
2019-01-30T10:43:04.906Z,13.00
2019-01-30T10:47:11.284Z,19.27
2019-01-30T10:51:17.846Z,12.83
2019-01-30T10:55:24.377Z,12.37
2019-01-30T10:59:31.960Z,11.63
2019-01-30T11:03:38.120Z,13.20
2019-01-30T11:07:44.592Z,13.40
2019-01-30T11:11:51.225Z,14.93
2019-01-30T11:15:57.773Z,14.93
2019-01-30T11:20:04.322Z,14.47
2019-01-30T11:24:11.187Z,13.17
2019-01-30T11:28:17.670Z,14.10
2019-01-30T11:32:24.278Z,13.40
2019-01-30T11:36:30.494Z,10.30
2019-01-30T11:40:36.962Z,15.88
2019-01-30T11:44:43.208Z,17.83
2019-01-30T11:48:56.203Z,11.70
2019-01-30T11:52:56.845Z,19.30
2019-01-30T11:57:03.296Z,10.30
2019-01-30T12:01:09.688Z,12.30
2019-01-30T12:05:15.864Z,8.95
2019-01-30T12:09:22.405Z,19.13
2019-01-30T12:13:28.782Z,12.20
2019-01-30T12:17:35.296Z,11.60
2019-01-30T12:21:41.587Z,10.47
2019-01-30T12:25:47.861Z,13.10
2019-01-30T12:29:54.521Z,16.47
2019-01-30T12:34:01.074Z,11.73
2019-01-30T12:38:08.119Z,16.87
2019-01-30T12:42:19.225Z,11.73
2019-01-30T12:46:26.928Z,11.03
2019-01-30T12:50:39.765Z,12.00
2019-01-30T12:59:06.058Z,15.93
2019-01-30T13:03:12.495Z,14.38
2019-01-30T13:07:19.236Z,11.43
2019-01-30T13:11:25.741Z,9.63
2019-01-30T13:15:32.610Z,17.30
2019-01-30T13:19:39.372Z,13.87
2019-01-30T13:23:53.997Z,15.07
2019-01-30T13:28:10.942Z,13.87
2019-01-30T13:32:17.327Z,22.60
2019-01-30T13:36:24.065Z,17.37
2019-01-30T13:40:30.812Z,19.13
2019-01-30T13:49:17.543Z,20.63
2019-01-30T13:53:57.026Z,14.90
2019-01-30T14:02:39.684Z,21.10
2019-01-30T14:06:46.988Z,43.60
2019-01-30T14:10:53.217Z,45.87
2019-01-30T14:15:00.228Z,20.27
2019-01-30T14:23:36.743Z,25.47
2019-01-30T14:27:43.140Z,20.97
2019-01-30T14:31:49.641Z,22.33
2019-01-30T14:35:57.113Z,24.17
2019-01-30T14:40:04.259Z,26.15
2019-01-30T14:44:11.171Z,22.13
2019-01-30T14:48:18.174Z,16.40
2019-01-30T14:52:25.624Z,16.10
2019-01-30T14:56:36.277Z,20.13
2019-01-30T15:00:43.508Z,22.10
2019-01-30T15:04:50.823Z,20.93
2019-01-30T15:08:57.325Z,15.63
2019-01-30T15:13:04.998Z,17.43
2019-01-30T15:17:11.958Z,17.83
2019-01-30T15:21:19.085Z,16.30
2019-01-30T15:25:25.864Z,19.53
2019-01-30T15:29:37.986Z,15.70
2019-01-30T15:33:49.224Z,16.90
2019-01-30T15:37:56.237Z,17.63
2019-01-30T15:42:02.989Z,17.20
2019-01-30T15:46:09.530Z,16.70
2019-01-30T15:50:16.293Z,17.07
2019-01-30T15:59:00.898Z,16.77
2019-01-30T16:03:10.026Z,20.27
2019-01-30T16:07:29.115Z,17.23
2019-01-30T16:11:42.604Z,21.40
2019-01-30T16:15:51.052Z,17.27
2019-01-30T16:19:58.080Z,18.60
2019-01-30T16:24:05.080Z,12.67
2019-01-30T16:28:12.858Z,14.90
2019-01-30T16:32:24.357Z,22.80
2019-01-30T16:36:30.889Z,19.00
2019-01-30T16:40:36.920Z,19.70
2019-01-30T16:44:43.707Z,16.83
2019-01-30T16:48:50.234Z,23.67
2019-01-30T16:52:57.021Z,15.23
2019-01-30T16:57:03.342Z,19.70
2019-01-30T17:01:10.448Z,17.53
2019-01-30T17:05:17.539Z,18.73
2019-01-30T17:09:23.932Z,17.63
2019-01-30T17:13:31.319Z,17.27
2019-01-30T17:17:38.007Z,19.43
2019-01-30T17:21:45.301Z,19.05
2019-01-30T17:25:51.765Z,15.53
2019-01-30T17:29:58.653Z,19.17
2019-01-30T17:34:05.128Z,19.87
2019-01-30T17:38:12.383Z,17.43
2019-01-30T17:42:21.849Z,16.97
2019-01-30T17:46:28.190Z,17.55
2019-01-30T17:50:36.365Z,17.90
2019-01-30T17:54:43.644Z,15.43
2019-01-30T17:58:50.747Z,15.50
2019-01-30T18:02:58.269Z,18.07
2019-01-30T18:07:05.276Z,13.50
2019-01-30T18:11:11.783Z,18.77
2019-01-30T18:15:18.751Z,11.83
2019-01-30T18:19:25.316Z,17.60
2019-01-30T18:23:31.890Z,13.30
2019-01-30T18:27:38.917Z,11.20
2019-01-30T18:31:47.069Z,15.33
2019-01-30T18:35:56.359Z,11.80
2019-01-30T18:40:02.911Z,11.47
2019-01-30T18:44:09.335Z,11.10
2019-01-30T18:48:16.306Z,13.50
2019-01-30T18:52:23.709Z,11.10
2019-01-30T18:56:30.506Z,13.03
2019-01-30T19:00:37.550Z,10.33
2019-01-30T19:04:45.084Z,11.30
2019-01-30T19:08:51.671Z,15.87
2019-01-30T19:12:58.660Z,12.10
2019-01-30T19:17:05.708Z,8.88
2019-01-30T19:21:12.515Z,12.68
2019-01-30T19:25:19.036Z,10.77
2019-01-30T19:29:26.589Z,10.83
2019-01-30T19:38:51.896Z,10.07
2019-01-30T19:42:58.779Z,11.90
2019-01-30T19:47:05.179Z,10.80
2019-01-30T19:51:12.544Z,10.40
2019-01-30T19:55:18.628Z,12.20
2019-01-30T19:59:24.975Z,11.03
2019-01-30T20:03:31.425Z,12.15
2019-01-30T20:07:38.187Z,10.87
2019-01-30T20:11:52.612Z,11.40
2019-01-30T20:16:15.588Z,8.90
2019-01-30T20:20:31.318Z,16.17
2019-01-30T20:24:39.416Z,10.17
2019-01-30T20:28:52.227Z,9.97
2019-01-30T20:32:59.754Z,9.50
2019-01-30T20:37:07.394Z,13.33
2019-01-30T20:41:13.741Z,11.60
2019-01-30T20:45:19.884Z,11.97
2019-01-30T20:49:30.381Z,13.47
2019-01-30T20:53:37.885Z,12.45
2019-01-30T20:57:44.253Z,10.70
2019-01-30T21:01:50.685Z,16.10
2019-01-30T21:05:57.663Z,10.20
2019-01-30T21:10:04.215Z,14.77
2019-01-30T21:14:11.188Z,9.83
2019-01-30T21:18:18.228Z,9.77
2019-01-30T21:22:24.915Z,9.28
2019-01-30T21:26:31.425Z,11.50
2019-01-30T21:30:38.274Z,11.40
2019-01-30T21:34:44.602Z,8.10
2019-01-30T21:38:50.992Z,13.03
2019-01-30T21:42:57.438Z,13.33
2019-01-30T21:47:03.933Z,12.60
2019-01-30T21:51:10.012Z,11.27
2019-01-30T21:55:16.001Z,19.47
2019-01-30T21:59:22.371Z,9.90
2019-01-30T22:03:28.536Z,9.73
2019-01-30T22:07:35.001Z,11.73
2019-01-30T22:11:41.947Z,8.78
2019-01-30T22:15:48.206Z,15.40
2019-01-30T22:19:54.289Z,8.70
2019-01-30T22:24:05.569Z,11.27
2019-01-30T22:28:08.550Z,12.93
2019-01-30T22:32:14.621Z,13.93
2019-01-30T22:36:20.932Z,13.60
2019-01-30T22:40:26.953Z,8.97
2019-01-30T22:44:33.429Z,7.30
2019-01-30T22:48:39.924Z,6.73
2019-01-30T22:52:46.093Z,9.23
2019-01-30T22:56:52.765Z,11.00
2019-01-30T23:01:03.538Z,9.93
2019-01-30T23:05:10.490Z,10.80
2019-01-30T23:09:16.819Z,9.90
2019-01-30T23:13:25.012Z,8.37
2019-01-30T23:17:31.869Z,7.90
2019-01-30T23:21:39.509Z,6.70
2019-01-30T23:25:46.433Z,12.37
2019-01-30T23:29:52.846Z,12.23
2019-01-30T23:33:59.124Z,32.57
2019-01-30T23:38:20.254Z,24.07
2019-01-30T23:42:26.604Z,8.77
2019-01-30T23:46:32.930Z,10.80
2019-01-30T23:50:39.457Z,587.77
2019-01-30T23:54:45.721Z,748.57
2019-01-30T23:58:52.176Z,1354.37
